Time;durP1;ratioP1;P1;durP2;ratioP2;P2;SDS_P1;SDS_P2;PMS_P1;PMS_P2;Temp;Humidity;BMP_temperature;BMP_pressure;BME280_temperature;BME280_humidity;BME280_pressure;Samples;Min_cycle;Max_cycle;Signal;HPM_P1;HPM_P2
2022/01/01 00:00:24;;;;;;;;;;;;;;;;;;5008914;28;21627;-68
2022/01/01 00:02:51;;;;;;;;;;;;;;;;;;5009849;28;19926;-68
2022/01/01 00:05:18;;;;;;;;;;;;;;;;;;5009639;28;19938;-69
2022/01/01 00:07:45;;;;;;;;;;;;;;;;;;5012523;28;19933;-69
2022/01/01 00:10:12;;;;;;;;;;;;;;;;;;5012382;28;19932;-69
2022/01/01 00:12:46;;;;;;;;;;;;;;;;;;5010404;28;19926;-69
2022/01/01 00:15:13;;;;;;;;;;;;;;;;;;5010505;28;20260;-69
2022/01/01 00:17:40;;;;;;;;;;;;;;;;;;5008012;28;19932;-69
2022/01/01 00:20:09;;;;;;;;;;;;;;;;;;5002892;28;19933;-69
2022/01/01 00:22:37;;;;;;;;;;;;;;;;;;5004883;28;19944;-71
2022/01/01 00:25:05;;;;;;;;;;;;;;;;;;5012921;28;20297;-68
2022/01/01 00:27:32;;;;;;;;;;;;;;;;;;5012779;28;20016;-68
2022/01/01 00:30:00;;;;;;;;;;;;;;;;;;5011564;28;20024;-69
2022/01/01 00:32:27;;;;;;;;;;;;;;;;;;5012502;28;19929;-69
2022/01/01 00:34:54;;;;;;;;;;;;;;;;;;5010916;28;20300;-68
2022/01/01 00:37:21;;;;;;;;;;;;;;;;;;5011685;28;19933;-69
2022/01/01 00:39:48;;;;;;;;;;;;;;;;;;5011521;28;20384;-70
2022/01/01 00:42:15;;;;;;;;;;;;;;;;;;5012842;28;20016;-70
2022/01/01 00:44:42;;;;;;;;;;;;;;;;;;5011838;28;19926;-70
2022/01/01 00:47:09;;;;;;;;;;;;;;;;;;4996257;28;20345;-69
2022/01/01 00:49:37;;;;;;;;;;;;;;;;;;5010518;28;19925;-69
2022/01/01 00:52:04;;;;;;;;;;;;;;;;;;5012511;28;19933;-70
2022/01/01 00:54:31;;;;;;;;;;;;;;;;;;5011881;28;19931;-69
2022/01/01 00:56:58;;;;;;;;;;;;;;;;;;5009624;28;19933;-69
2022/01/01 00:59:25;;;;;;;;;;;;;;;;;;5009787;28;19947;-69
2022/01/01 01:01:53;;;;;;;;;;;;;;;;;;5012102;28;19973;-69
2022/01/01 01:04:20;;;;;;;;;;;;;;;;;;5002604;28;19926;-69
2022/01/01 01:06:47;;;;;;;;;;;;;;;;;;5009648;28;20384;-69
2022/01/01 01:09:14;;;;;;;;;;;;;;;;;;5012030;28;19932;-69
2022/01/01 01:11:45;;;;;;;;;;;;;;;;;;5011076;28;19932;-68
2022/01/01 01:14:19;;;;;;;;;;;;;;;;;;5008158;28;20496;-69
2022/01/01 01:16:47;;;;;;;;;;;;;;;;;;5009114;28;19932;-69
2022/01/01 01:19:14;;;;;;;;;;;;;;;;;;5010012;28;19948;-69
2022/01/01 01:21:41;;;;;;;;;;;;;;;;;;5010371;28;19961;-70
2022/01/01 01:24:08;;;;;;;;;;;;;;;;;;5003385;28;20301;-70
2022/01/01 01:26:35;;;;;;;;;;;;;;;;;;5001758;28;19932;-69
2022/01/01 01:29:03;;;;;;;;;;;;;;;;;;5006764;28;19936;-69
2022/01/01 01:31:30;;;;;;;;;;;;;;;;;;5005081;28;20028;-69
2022/01/01 01:33:57;;;;;;;;;;;;;;;;;;5005240;28;19934;-70
2022/01/01 01:36:24;;;;;;;;;;;;;;;;;;4999857;28;19940;-69
2022/01/01 01:38:51;;;;;;;;;;;;;;;;;;5004534;28;19925;-70
2022/01/01 01:41:18;;;;;;;;;;;;;;;;;;5005896;28;19926;-69
2022/01/01 01:43:46;;;;;;;;;;;;;;;;;;5005112;28;20292;-69
2022/01/01 01:46:14;;;;;;;;;;;;;;;;;;5007276;28;19972;-69
2022/01/01 01:48:43;;;;;;;;;;;;;;;;;;5005823;28;20036;-69
2022/01/01 01:51:10;;;;;;;;;;;;;;;;;;5006268;28;19925;-70
2022/01/01 01:53:37;;;;;;;;;;;;;;;;;;5002699;28;19932;-70
2022/01/01 01:56:04;;;;;;;;;;;;;;;;;;5004455;28;19926;-70
2022/01/01 01:58:31;;;;;;;;;;;;;;;;;;5005847;28;19932;-68
2022/01/01 02:03:51;;;;;;;;;;;;;;;;;;4969456;28;19929;-69
2022/01/01 02:06:18;;;;;;;;;;;;;;;;;;5006884;28;19932;-69
2022/01/01 02:08:49;;;;;;;;;;;;;;;;;;5005905;28;20627;-69
2022/01/01 02:11:17;;;;;;;;;;;;;;;;;;5002496;28;19933;-68
2022/01/01 02:14:01;;;;;;;;;;;;;;;;;;5007744;28;19949;-69
2022/01/01 02:19:11;;;;;;;;;;;;;;;;;;4997124;28;20312;-69
2022/01/01 02:21:38;;;;;;;;;;;;;;;;;;5003766;28;20306;-69
2022/01/01 02:24:05;;;;;;;;;;;;;;;;;;5008242;28;19933;-68
2022/01/01 02:26:32;;;;;;;;;;;;;;;;;;5007229;28;20020;-69
2022/01/01 02:28:59;;;;;;;;;;;;;;;;;;5007467;28;19926;-68
2022/01/01 02:31:26;;;;;;;;;;;;;;;;;;5003684;28;19932;-68
2022/01/01 02:33:53;;;;;;;;;;;;;;;;;;5005949;28;20630;-69
2022/01/01 02:36:20;;;;;;;;;;;;;;;;;;5004767;28;19925;-69
2022/01/01 02:38:47;;;;;;;;;;;;;;;;;;5006437;28;19931;-69
2022/01/01 02:41:14;;;;;;;;;;;;;;;;;;5005906;28;19926;-69
2022/01/01 02:43:41;;;;;;;;;;;;;;;;;;5004603;28;20515;-69
2022/01/01 02:46:08;;;;;;;;;;;;;;;;;;5005096;28;19926;-69
2022/01/01 02:48:35;;;;;;;;;;;;;;;;;;5005111;28;20307;-68
2022/01/01 02:51:02;;;;;;;;;;;;;;;;;;5004595;28;20316;-68
2022/01/01 02:53:30;;;;;;;;;;;;;;;;;;5006337;28;19933;-68
2022/01/01 02:55:57;;;;;;;;;;;;;;;;;;5004680;28;19984;-69
2022/01/01 02:58:24;;;;;;;;;;;;;;;;;;5007315;28;19940;-68
2022/01/01 03:00:51;;;;;;;;;;;;;;;;;;5005839;28;19932;-69
2022/01/01 03:03:17;;;;;;;;;;;;;;;;;;5001537;28;19933;-69
2022/01/01 03:05:44;;;;;;;;;;;;;;;;;;5004680;28;19941;-69
2022/01/01 03:08:11;;;;;;;;;;;;;;;;;;5005202;28;19925;-69
2022/01/01 03:10:38;;;;;;;;;;;;;;;;;;5006753;28;19933;-68
2022/01/01 03:13:05;;;;;;;;;;;;;;;;;;5003817;28;19925;-69
2022/01/01 03:15:32;;;;;;;;;;;;;;;;;;5006947;28;20311;-69
2022/01/01 03:18:00;;;;;;;;;;;;;;;;;;5006049;28;20395;-69
2022/01/01 03:20:27;;;;;;;;;;;;;;;;;;5005929;28;20028;-69
2022/01/01 03:22:54;;;;;;;;;;;;;;;;;;5003634;28;19926;-68
2022/01/01 03:25:21;;;;;;;;;;;;;;;;;;5007755;28;19932;-68
2022/01/01 03:27:48;;;;;;;;;;;;;;;;;;5003059;28;19940;-69
2022/01/01 03:30:15;;;;;;;;;;;;;;;;;;5009369;28;19944;-68
2022/01/01 03:32:42;;;;;;;;;;;;;;;;;;5002952;28;19948;-69
2022/01/01 03:35:09;;;;;;;;;;;;;;;;;;5008827;28;19925;-69
2022/01/01 03:37:36;;;;;;;;;;;;;;;;;;5004099;28;19933;-68
2022/01/01 03:40:04;;;;;;;;;;;;;;;;;;5007790;28;20407;-69
2022/01/01 03:42:31;;;;;;;;;;;;;;;;;;5007692;28;19925;-68
2022/01/01 03:44:57;;;;;;;;;;;;;;;;;;5008596;28;19984;-69
2022/01/01 03:47:24;;;;;;;;;;;;;;;;;;5010373;28;19925;-68
2022/01/01 03:49:51;;;;;;;;;;;;;;;;;;5010933;28;20009;-69
2022/01/01 03:52:18;;;;;;;;;;;;;;;;;;5006813;28;20468;-69
2022/01/01 03:54:45;;;;;;;;;;;;;;;;;;5009706;28;19932;-69
2022/01/01 03:57:12;;;;;;;;;;;;;;;;;;5008969;28;19925;-69
2022/01/01 03:59:39;;;;;;;;;;;;;;;;;;5009543;28;19932;-69
2022/01/01 04:02:06;;;;;;;;;;;;;;;;;;5008620;28;19941;-69
2022/01/01 04:04:33;;;;;;;;;;;;;;;;;;5006216;28;19933;-68
2022/01/01 04:07:02;;;;;;;;;;;;;;;;;;5008004;28;20363;-69
2022/01/01 04:09:29;;;;;;;;;;;;;;;;;;5011494;28;19948;-68
2022/01/01 04:11:56;;;;;;;;;;;;;;;;;;5008294;28;20033;-68
2022/01/01 04:14:23;;;;;;;;;;;;;;;;;;5009263;28;20420;-68
2022/01/01 04:16:51;;;;;;;;;;;;;;;;;;5009579;28;20463;-69
2022/01/01 04:19:19;;;;;;;;;;;;;;;;;;5008676;28;19925;-69
2022/01/01 04:21:46;;;;;;;;;;;;;;;;;;5008658;28;19932;-69
2022/01/01 04:24:13;;;;;;;;;;;;;;;;;;5010348;28;19934;-68
2022/01/01 04:26:40;;;;;;;;;;;;;;;;;;5006355;28;19950;-68
2022/01/01 04:29:07;;;;;;;;;;;;;;;;;;5011279;28;19925;-69
2022/01/01 04:31:34;;;;;;;;;;;;;;;;;;5001322;28;20365;-69
2022/01/01 04:34:01;;;;;;;;;;;;;;;;;;5009129;28;20424;-69
2022/01/01 04:36:28;;;;;;;;;;;;;;;;;;5003332;28;19937;-69
2022/01/01 04:38:55;;;;;;;;;;;;;;;;;;5008723;28;20299;-69
2022/01/01 04:41:22;;;;;;;;;;;;;;;;;;5005505;28;19976;-69
2022/01/01 04:43:49;;;;;;;;;;;;;;;;;;5005337;28;20400;-69
2022/01/01 04:46:16;;;;;;;;;;;;;;;;;;5004965;28;19926;-70
2022/01/01 04:48:43;;;;;;;;;;;;;;;;;;5007026;28;19933;-69
2022/01/01 04:51:10;;;;;;;;;;;;;;;;;;5006816;28;20021;-68
2022/01/01 04:53:39;;;;;;;;;;;;;;;;;;5008357;28;19925;-70
2022/01/01 04:56:07;;;;;;;;;;;;;;;;;;5008653;28;19932;-69
2022/01/01 04:58:34;;;;;;;;;;;;;;;;;;5006804;28;19925;-69
2022/01/01 05:01:01;;;;;;;;;;;;;;;;;;5009511;28;19936;-69
2022/01/01 05:03:28;;;;;;;;;;;;;;;;;;5005329;28;20389;-69
2022/01/01 05:05:55;;;;;;;;;;;;;;;;;;5007336;28;19925;-69
2022/01/01 05:08:22;;;;;;;;;;;;;;;;;;5001997;28;19944;-69
2022/01/01 05:10:49;;;;;;;;;;;;;;;;;;5010179;28;19929;-69
2022/01/01 05:13:17;;;;;;;;;;;;;;;;;;5007657;28;19934;-69
2022/01/01 05:15:44;;;;;;;;;;;;;;;;;;5009853;28;19925;-69
2022/01/01 05:18:11;;;;;;;;;;;;;;;;;;5007829;28;19933;-69
2022/01/01 05:20:38;;;;;;;;;;;;;;;;;;5008332;28;19983;-70
2022/01/01 05:23:05;;;;;;;;;;;;;;;;;;5004386;28;19925;-70
2022/01/01 05:25:31;;;;;;;;;;;;;;;;;;5008195;28;19926;-69
2022/01/01 05:27:58;;;;;;;;;;;;;;;;;;5004851;28;19930;-69
2022/01/01 05:30:26;;;;;;;;;;;;;;;;;;5007106;28;19926;-69
2022/01/01 05:32:52;;;;;;;;;;;;;;;;;;5006561;28;19929;-69
2022/01/01 05:35:19;;;;;;;;;;;;;;;;;;5006327;28;19929;-69
2022/01/01 05:37:46;;;;;;;;;;;;;;;;;;5001747;28;20016;-69
2022/01/01 05:40:13;;;;;;;;;;;;;;;;;;5006867;28;19932;-69
2022/01/01 05:42:40;;;;;;;;;;;;;;;;;;5005343;28;19945;-69
2022/01/01 05:45:07;;;;;;;;;;;;;;;;;;5008191;28;19929;-69
2022/01/01 05:47:34;;;;;;;;;;;;;;;;;;5007621;28;19933;-69
2022/01/01 05:50:01;;;;;;;;;;;;;;;;;;5006327;28;19947;-69
2022/01/01 05:52:28;;;;;;;;;;;;;;;;;;5005927;28;19933;-69
2022/01/01 05:54:55;;;;;;;;;;;;;;;;;;5006848;28;19930;-69
2022/01/01 05:57:22;;;;;;;;;;;;;;;;;;5006558;28;19926;-69
2022/01/01 05:59:49;;;;;;;;;;;;;;;;;;5007358;28;19936;-69
2022/01/01 06:02:16;;;;;;;;;;;;;;;;;;5006649;28;19997;-69
2022/01/01 06:04:43;;;;;;;;;;;;;;;;;;5006515;28;19925;-69
2022/01/01 06:07:10;;;;;;;;;;;;;;;;;;5003470;28;19933;-69
2022/01/01 06:09:37;;;;;;;;;;;;;;;;;;5007792;28;19965;-69
2022/01/01 06:12:04;;;;;;;;;;;;;;;;;;5004260;28;19943;-68
2022/01/01 06:14:31;;;;;;;;;;;;;;;;;;5008225;28;19948;-69
2022/01/01 06:16:58;;;;;;;;;;;;;;;;;;5005022;28;19953;-69
2022/01/01 06:19:25;;;;;;;;;;;;;;;;;;5008857;28;19932;-69
2022/01/01 06:21:52;;;;;;;;;;;;;;;;;;5003439;28;19926;-69
2022/01/01 06:24:19;;;;;;;;;;;;;;;;;;5007566;28;19984;-69
2022/01/01 06:26:46;;;;;;;;;;;;;;;;;;5005297;28;19925;-69
2022/01/01 06:29:13;;;;;;;;;;;;;;;;;;5005479;28;19930;-69
2022/01/01 06:31:40;;;;;;;;;;;;;;;;;;5004237;28;19929;-69
2022/01/01 06:34:08;;;;;;;;;;;;;;;;;;5007661;28;20406;-68
2022/01/01 06:36:35;;;;;;;;;;;;;;;;;;5004802;28;19925;-69
2022/01/01 06:39:02;;;;;;;;;;;;;;;;;;5004185;28;19940;-69
2022/01/01 06:41:28;;;;;;;;;;;;;;;;;;5005416;28;19934;-69
2022/01/01 06:43:55;;;;;;;;;;;;;;;;;;5006382;28;19976;-68
2022/01/01 06:46:22;;;;;;;;;;;;;;;;;;5003407;28;19934;-68
2022/01/01 06:48:50;;;;;;;;;;;;;;;;;;5004138;28;19929;-68
2022/01/01 06:51:17;;;;;;;;;;;;;;;;;;5005288;28;19925;-68
2022/01/01 06:53:44;;;;;;;;;;;;;;;;;;5009411;28;19940;-69
2022/01/01 06:56:11;;;;;;;;;;;;;;;;;;5006846;28;19925;-68
2022/01/01 06:58:38;;;;;;;;;;;;;;;;;;5005683;28;20407;-69
2022/01/01 07:01:05;;;;;;;;;;;;;;;;;;5005974;28;19926;-69
2022/01/01 07:03:32;;;;;;;;;;;;;;;;;;5007310;28;20395;-68
2022/01/01 07:05:59;;;;;;;;;;;;;;;;;;5009594;28;19981;-69
2022/01/01 07:08:26;;;;;;;;;;;;;;;;;;5006655;28;20013;-69
2022/01/01 07:10:53;;;;;;;;;;;;;;;;;;5008875;28;19925;-69
2022/01/01 07:13:20;;;;;;;;;;;;;;;;;;5010662;28;20316;-69
2022/01/01 07:15:46;;;;;;;;;;;;;;;;;;5012587;28;19932;-69
2022/01/01 07:18:13;;;;;;;;;;;;;;;;;;5009149;28;19931;-68
2022/01/01 07:20:40;;;;;;;;;;;;;;;;;;5009677;28;19933;-68
2022/01/01 07:23:07;;;;;;;;;;;;;;;;;;5009319;28;19932;-68
2022/01/01 07:25:34;;;;;;;;;;;;;;;;;;5009515;28;19925;-69
2022/01/01 07:28:01;;;;;;;;;;;;;;;;;;5008146;28;19925;-68
2022/01/01 07:30:28;;;;;;;;;;;;;;;;;;5009288;28;19925;-68
2022/01/01 07:32:57;;;;;;;;;;;;;;;;;;5010813;28;20396;-69
2022/01/01 07:35:24;;;;;;;;;;;;;;;;;;5011256;28;19979;-69
2022/01/01 07:37:52;;;;;;;;;;;;;;;;;;5004566;28;20381;-68
2022/01/01 07:40:19;;;;;;;;;;;;;;;;;;5010364;28;19932;-69
2022/01/01 07:42:49;;;;;;;;;;;;;;;;;;5005691;28;19929;-68
2022/01/01 07:45:16;;;;;;;;;;;;;;;;;;5011045;28;19933;-68
2022/01/01 07:47:43;;;;;;;;;;;;;;;;;;5007838;28;20012;-69
2022/01/01 07:50:10;;;;;;;;;;;;;;;;;;5010316;28;19926;-68
2022/01/01 07:52:37;;;;;;;;;;;;;;;;;;5007506;28;19994;-68
2022/01/01 07:55:04;;;;;;;;;;;;;;;;;;5010546;28;19940;-68
2022/01/01 07:57:31;;;;;;;;;;;;;;;;;;5010092;28;19931;-69
2022/01/01 07:59:58;;;;;;;;;;;;;;;;;;5011314;28;19926;-69
2022/01/01 08:02:25;;;;;;;;;;;;;;;;;;5003078;28;19926;-69
2022/01/01 08:04:52;;;;;;;;;;;;;;;;;;5008168;28;19925;-69
2022/01/01 08:07:19;;;;;;;;;;;;;;;;;;5010329;28;19932;-73
2022/01/01 08:09:46;;;;;;;;;;;;;;;;;;5010949;28;19925;-69
2022/01/01 08:12:13;;;;;;;;;;;;;;;;;;5007948;28;19936;-69
2022/01/01 08:14:39;;;;;;;;;;;;;;;;;;5011252;28;19933;-69
2022/01/01 08:17:06;;;;;;;;;;;;;;;;;;5009703;28;20016;-68
2022/01/01 08:19:35;;;;;;;;;;;;;;;;;;5010679;28;19925;-69
2022/01/01 08:22:02;;;;;;;;;;;;;;;;;;5008239;28;19926;-68
2022/01/01 08:24:29;;;;;;;;;;;;;;;;;;5010220;28;19925;-68
2022/01/01 08:26:56;;;;;;;;;;;;;;;;;;5008454;28;19926;-68
2022/01/01 08:29:24;;;;;;;;;;;;;;;;;;5010392;28;19933;-68
2022/01/01 08:31:51;;;;;;;;;;;;;;;;;;5008140;28;19952;-69
2022/01/01 08:34:19;;;;;;;;;;;;;;;;;;5009130;28;19933;-69
2022/01/01 08:36:46;;;;;;;;;;;;;;;;;;5006967;28;19926;-69
2022/01/01 08:39:13;;;;;;;;;;;;;;;;;;5010818;28;20019;-69
2022/01/01 08:41:40;;;;;;;;;;;;;;;;;;5005040;28;20048;-68
2022/01/01 08:44:07;;;;;;;;;;;;;;;;;;5008838;28;19974;-68
2022/01/01 08:46:34;;;;;;;;;;;;;;;;;;5002769;28;19972;-69
2022/01/01 08:49:03;;;;;;;;;;;;;;;;;;5007276;28;19929;-69
2022/01/01 08:51:30;;;;;;;;;;;;;;;;;;5008821;28;19933;-69
2022/01/01 08:53:59;;;;;;;;;;;;;;;;;;5008279;28;20300;-69
2022/01/01 08:56:26;;;;;;;;;;;;;;;;;;5001077;28;20016;-68
2022/01/01 08:58:53;;;;;;;;;;;;;;;;;;5007719;28;19929;-69
2022/01/01 09:01:20;;;;;;;;;;;;;;;;;;5006768;28;19933;-68
2022/01/01 09:03:47;;;;;;;;;;;;;;;;;;5004817;28;20558;-69
2022/01/01 09:06:14;;;;;;;;;;;;;;;;;;5003877;28;20021;-69
2022/01/01 09:08:41;;;;;;;;;;;;;;;;;;5006702;28;22044;-69
2022/01/01 09:11:08;;;;;;;;;;;;;;;;;;5005541;28;20016;-68
2022/01/01 09:13:35;;;;;;;;;;;;;;;;;;5004694;28;20008;-69
2022/01/01 09:16:02;;;;;;;;;;;;;;;;;;5006638;28;20447;-69
2022/01/01 09:18:29;;;;;;;;;;;;;;;;;;5006087;28;20393;-69
2022/01/01 09:20:58;;;;;;;;;;;;;;;;;;5006059;28;19932;-71
2022/01/01 09:23:25;;;;;;;;;;;;;;;;;;5007983;28;19992;-70
2022/01/01 09:25:52;;;;;;;;;;;;;;;;;;5000651;28;19931;-70
2022/01/01 09:28:19;;;;;;;;;;;;;;;;;;5006164;28;19925;-70
2022/01/01 09:30:46;;;;;;;;;;;;;;;;;;5004167;28;20414;-69
2022/01/01 09:33:13;;;;;;;;;;;;;;;;;;5002977;28;19925;-67
2022/01/01 09:35:40;;;;;;;;;;;;;;;;;;5003582;28;19933;-67
2022/01/01 09:38:07;;;;;;;;;;;;;;;;;;5003927;28;19925;-67
2022/01/01 09:40:34;;;;;;;;;;;;;;;;;;5002178;28;19929;-66
2022/01/01 09:43:01;;;;;;;;;;;;;;;;;;5000655;28;19933;-68
2022/01/01 09:45:28;;;;;;;;;;;;;;;;;;4998534;28;19925;-67
2022/01/01 09:47:55;;;;;;;;;;;;;;;;;;5005243;28;19925;-67
2022/01/01 09:50:22;;;;;;;;;;;;;;;;;;5005528;28;19936;-67
2022/01/01 09:52:49;;;;;;;;;;;;;;;;;;5003929;28;20012;-66
2022/01/01 09:55:15;;;;;;;;;;;;;;;;;;5004567;28;20036;-66
2022/01/01 09:57:42;;;;;;;;;;;;;;;;;;5006435;28;19948;-67
2022/01/01 10:00:09;;;;;;;;;;;;;;;;;;5005269;28;20016;-66
2022/01/01 10:02:36;;;;;;;;;;;;;;;;;;5004895;28;20029;-67
2022/01/01 10:05:03;;;;;;;;;;;;;;;;;;5006465;28;20012;-65
2022/01/01 10:07:30;;;;;;;;;;;;;;;;;;5007037;28;20013;-66
2022/01/01 10:09:57;;;;;;;;;;;;;;;;;;5000839;28;19978;-67
2022/01/01 10:12:24;;;;;;;;;;;;;;;;;;5003515;28;20020;-66
2022/01/01 10:14:51;;;;;;;;;;;;;;;;;;5000796;28;19925;-67
2022/01/01 10:17:18;;;;;;;;;;;;;;;;;;5002763;28;21096;-66
2022/01/01 10:19:45;;;;;;;;;;;;;;;;;;5004515;28;20008;-67
2022/01/01 10:22:14;;;;;;;;;;;;;;;;;;5004703;28;20158;-67
2022/01/01 10:27:42;;;;;;;;;;;;;;;;;;5007487;28;19967;-66
2022/01/01 10:27:45;;;;;;;;;;;;;;;;;;5005819;28;20016;-67
2022/01/01 10:30:12;;;;;;;;;;;;;;;;;;4997816;28;20416;-66
2022/01/01 10:32:39;;;;;;;;;;;;;;;;;;4992946;28;20408;-67
2022/01/01 10:35:06;;;;;;;;;;;;;;;;;;5001197;28;19925;-67
2022/01/01 10:37:33;;;;;;;;;;;;;;;;;;4999945;28;19968;-67
2022/01/01 10:40:00;;;;;;;;;;;;;;;;;;4999968;28;19930;-66
2022/01/01 10:42:27;;;;;;;;;;;;;;;;;;5002591;28;19929;-67
2022/01/01 10:44:54;;;;;;;;;;;;;;;;;;5003121;28;20052;-66
2022/01/01 10:47:27;;;;;;;;;;;;;;;;;;5003119;28;20036;-67
2022/01/01 10:50:14;;;;;;;;;;;;;;;;;;5003951;28;19980;-66
2022/01/01 10:52:45;;;;;;;;;;;;;;;;;;4999474;28;20029;-67
2022/01/01 10:55:12;;;;;;;;;;;;;;;;;;5005358;28;19948;-66
2022/01/01 10:57:39;;;;;;;;;;;;;;;;;;4994726;28;20347;-66
2022/01/01 11:00:06;;;;;;;;;;;;;;;;;;5003820;28;19926;-66
2022/01/01 11:02:34;;;;;;;;;;;;;;;;;;4999951;28;19984;-68
2022/01/01 11:05:03;;;;;;;;;;;;;;;;;;5003027;28;19995;-65
2022/01/01 11:07:30;;;;;;;;;;;;;;;;;;5004712;28;19925;-67
2022/01/01 11:09:57;;;;;;;;;;;;;;;;;;5001388;28;19933;-66
2022/01/01 11:12:24;;;;;;;;;;;;;;;;;;5004077;28;19967;-66
2022/01/01 11:14:51;;;;;;;;;;;;;;;;;;5000132;28;19933;-66
2022/01/01 11:17:18;;;;;;;;;;;;;;;;;;5004493;28;19981;-67
2022/01/01 11:19:45;;;;;;;;;;;;;;;;;;5004045;28;19960;-66
2022/01/01 11:22:12;;;;;;;;;;;;;;;;;;5008325;28;20020;-67
2022/01/01 11:24:39;;;;;;;;;;;;;;;;;;5000792;28;19932;-66
2022/01/01 11:27:06;;;;;;;;;;;;;;;;;;5001858;28;20293;-67
2022/01/01 11:29:34;;;;;;;;;;;;;;;;;;4999993;28;20440;-67
2022/01/01 11:32:01;;;;;;;;;;;;;;;;;;5003050;28;19937;-66
2022/01/01 11:34:27;;;;;;;;;;;;;;;;;;5003974;28;19926;-65
2022/01/01 11:36:54;;;;;;;;;;;;;;;;;;5001971;28;19925;-65
2022/01/01 11:39:23;;;;;;;;;;;;;;;;;;4999403;28;19929;-65
2022/01/01 11:41:50;;;;;;;;;;;;;;;;;;5001828;28;19929;-66
2022/01/01 11:44:17;;;;;;;;;;;;;;;;;;5002167;28;19926;-66
2022/01/01 11:46:44;;;;;;;;;;;;;;;;;;5003280;28;19938;-66
2022/01/01 11:49:11;;;;;;;;;;;;;;;;;;5001463;28;19951;-66
2022/01/01 11:51:38;;;;;;;;;;;;;;;;;;5004155;28;19936;-66
2022/01/01 11:54:05;;;;;;;;;;;;;;;;;;5006929;28;20031;-66
2022/01/01 11:56:32;;;;;;;;;;;;;;;;;;5003787;28;20473;-66
2022/01/01 11:58:59;;;;;;;;;;;;;;;;;;5005557;28;19932;-66
2022/01/01 12:01:26;;;;;;;;;;;;;;;;;;5010104;28;20005;-66
2022/01/01 12:03:53;;;;;;;;;;;;;;;;;;5005668;28;20447;-66
2022/01/01 12:06:20;;;;;;;;;;;;;;;;;;5006693;28;20412;-66
2022/01/01 12:08:48;;;;;;;;;;;;;;;;;;5004911;28;19933;-67
2022/01/01 12:11:15;;;;;;;;;;;;;;;;;;5003907;28;19926;-66
2022/01/01 12:13:42;;;;;;;;;;;;;;;;;;5007406;28;20129;-67
2022/01/01 12:16:09;;;;;;;;;;;;;;;;;;5005507;28;20028;-66
2022/01/01 12:18:35;;;;;;;;;;;;;;;;;;5008194;28;19979;-66
2022/01/01 12:21:03;;;;;;;;;;;;;;;;;;5009814;28;20012;-68
2022/01/01 12:23:30;;;;;;;;;;;;;;;;;;5005819;28;20411;-67
2022/01/01 12:25:58;;;;;;;;;;;;;;;;;;5008399;28;19972;-67
2022/01/01 12:28:24;;;;;;;;;;;;;;;;;;5004319;28;20021;-65
2022/01/01 12:30:52;;;;;;;;;;;;;;;;;;5008366;28;19926;-66
2022/01/01 12:33:19;;;;;;;;;;;;;;;;;;5004962;28;20007;-66
2022/01/01 12:35:46;;;;;;;;;;;;;;;;;;5006466;28;19925;-66
2022/01/01 12:38:12;;;;;;;;;;;;;;;;;;5002342;28;20418;-66
2022/01/01 12:40:39;;;;;;;;;;;;;;;;;;5005385;28;20384;-67
2022/01/01 12:43:06;;;;;;;;;;;;;;;;;;5004909;28;19939;-65
2022/01/01 12:45:33;;;;;;;;;;;;;;;;;;5006741;28;19933;-67
2022/01/01 12:48:00;;;;;;;;;;;;;;;;;;5006528;28;19930;-67
2022/01/01 12:50:27;;;;;;;;;;;;;;;;;;5008678;28;20332;-65
2022/01/01 12:52:55;;;;;;;;;;;;;;;;;;5006799;28;20381;-66
2022/01/01 12:55:22;;;;;;;;;;;;;;;;;;5005603;28;20556;-66
2022/01/01 12:57:49;;;;;;;;;;;;;;;;;;5003394;28;19929;-67
2022/01/01 13:00:16;;;;;;;;;;;;;;;;;;5004732;28;19932;-66
2022/01/01 13:02:43;;;;;;;;;;;;;;;;;;5003447;28;19929;-65
2022/01/01 13:05:10;;;;;;;;;;;;;;;;;;5003515;28;19933;-67
2022/01/01 13:07:37;;;;;;;;;;;;;;;;;;5002895;28;19925;-66
2022/01/01 13:10:04;;;;;;;;;;;;;;;;;;5005856;28;19940;-66
2022/01/01 13:12:31;;;;;;;;;;;;;;;;;;5004586;28;19932;-67
2022/01/01 13:14:58;;;;;;;;;;;;;;;;;;5005266;28;19926;-67
2022/01/01 13:17:25;;;;;;;;;;;;;;;;;;5003291;28;19944;-67
2022/01/01 13:19:52;;;;;;;;;;;;;;;;;;5004724;28;19937;-66
2022/01/01 13:22:19;;;;;;;;;;;;;;;;;;5004031;28;19925;-66
2022/01/01 13:24:46;;;;;;;;;;;;;;;;;;5004070;28;20470;-66
2022/01/01 13:27:13;;;;;;;;;;;;;;;;;;5003814;28;19929;-66
2022/01/01 13:29:42;;;;;;;;;;;;;;;;;;5005118;28;19925;-66
2022/01/01 13:32:09;;;;;;;;;;;;;;;;;;5003694;28;19953;-66
2022/01/01 13:34:39;;;;;;;;;;;;;;;;;;5003159;28;19930;-66
2022/01/01 13:37:07;;;;;;;;;;;;;;;;;;5005340;28;19929;-66
2022/01/01 13:39:34;;;;;;;;;;;;;;;;;;5004548;28;20394;-66
2022/01/01 13:42:01;;;;;;;;;;;;;;;;;;5002827;28;19925;-66
2022/01/01 13:44:28;;;;;;;;;;;;;;;;;;5004456;28;19925;-67
2022/01/01 13:46:55;;;;;;;;;;;;;;;;;;5003778;28;19937;-67
2022/01/01 13:49:22;;;;;;;;;;;;;;;;;;5005887;28;19925;-67
2022/01/01 13:51:49;;;;;;;;;;;;;;;;;;5004380;28;19925;-68
2022/01/01 13:54:16;;;;;;;;;;;;;;;;;;5004389;28;20016;-66
2022/01/01 13:56:43;;;;;;;;;;;;;;;;;;5001478;28;19937;-67
2022/01/01 13:59:10;;;;;;;;;;;;;;;;;;5003414;28;20008;-67
2022/01/01 14:01:37;;;;;;;;;;;;;;;;;;4998422;28;19968;-67
2022/01/01 14:04:04;;;;;;;;;;;;;;;;;;4998261;28;19940;-67
2022/01/01 14:06:31;;;;;;;;;;;;;;;;;;5004111;28;19926;-68
2022/01/01 14:08:58;;;;;;;;;;;;;;;;;;5009133;28;19925;-67
2022/01/01 14:11:25;;;;;;;;;;;;;;;;;;5005866;28;19933;-69
2022/01/01 14:13:52;;;;;;;;;;;;;;;;;;5009669;28;20025;-68
2022/01/01 14:16:19;;;;;;;;;;;;;;;;;;5006902;28;19926;-67
2022/01/01 14:18:46;;;;;;;;;;;;;;;;;;5007929;28;19925;-67
2022/01/01 14:21:13;;;;;;;;;;;;;;;;;;5005391;28;19937;-67
2022/01/01 14:23:42;;;;;;;;;;;;;;;;;;5004477;28;19926;-68
2022/01/01 14:26:09;;;;;;;;;;;;;;;;;;5005641;28;19931;-68
2022/01/01 14:28:36;;;;;;;;;;;;;;;;;;5007379;28;20252;-68
2022/01/01 14:31:03;;;;;;;;;;;;;;;;;;5008890;28;19929;-68
2022/01/01 14:33:30;;;;;;;;;;;;;;;;;;5006396;28;20403;-68
2022/01/01 14:35:57;;;;;;;;;;;;;;;;;;5008505;28;19926;-68
2022/01/01 14:38:24;;;;;;;;;;;;;;;;;;5005814;28;19932;-68
2022/01/01 14:40:52;;;;;;;;;;;;;;;;;;5006805;28;20597;-68
2022/01/01 14:43:19;;;;;;;;;;;;;;;;;;5007571;28;19925;-68
2022/01/01 14:45:46;;;;;;;;;;;;;;;;;;5009730;28;19956;-66
2022/01/01 14:48:13;;;;;;;;;;;;;;;;;;5003976;28;19941;-67
2022/01/01 14:50:41;;;;;;;;;;;;;;;;;;5009158;28;19948;-67
2022/01/01 14:53:08;;;;;;;;;;;;;;;;;;5002687;28;19992;-67
2022/01/01 14:55:35;;;;;;;;;;;;;;;;;;5008210;28;19934;-67
2022/01/01 14:58:02;;;;;;;;;;;;;;;;;;5007663;28;19925;-67
2022/01/01 15:00:29;;;;;;;;;;;;;;;;;;5008840;28;20293;-67
2022/01/01 15:02:56;;;;;;;;;;;;;;;;;;5003411;28;19979;-67
2022/01/01 15:05:23;;;;;;;;;;;;;;;;;;5000459;28;19933;-68
2022/01/01 15:07:52;;;;;;;;;;;;;;;;;;5003737;28;20711;-68
2022/01/01 15:10:20;;;;;;;;;;;;;;;;;;5006961;28;19983;-67
2022/01/01 15:12:46;;;;;;;;;;;;;;;;;;5007289;28;19948;-67
2022/01/01 15:15:13;;;;;;;;;;;;;;;;;;5007613;28;20313;-67
2022/01/01 15:17:40;;;;;;;;;;;;;;;;;;5006636;28;19932;-69
2022/01/01 15:20:07;;;;;;;;;;;;;;;;;;5007416;28;20468;-69
2022/01/01 15:22:34;;;;;;;;;;;;;;;;;;5008084;28;20000;-67
2022/01/01 15:25:01;;;;;;;;;;;;;;;;;;5002078;28;19929;-68
2022/01/01 15:27:28;;;;;;;;;;;;;;;;;;5009859;28;20008;-68
2022/01/01 15:30:07;;;;;;;;;;;;;;;;;;5012543;28;20400;-68
2022/01/01 15:35:29;;;;;;;;;;;;;;;;;;5012126;28;19920;-68
2022/01/01 15:38:01;;;;;;;;;;;;;;;;;;5010519;28;19925;-70
2022/01/01 15:40:30;;;;;;;;;;;;;;;;;;5009457;28;19926;-67
2022/01/01 15:42:57;;;;;;;;;;;;;;;;;;5011402;28;20016;-67
2022/01/01 15:45:24;;;;;;;;;;;;;;;;;;5012036;28;19929;-66
2022/01/01 15:47:51;;;;;;;;;;;;;;;;;;5009857;28;19939;-69
2022/01/01 15:50:18;;;;;;;;;;;;;;;;;;5009342;28;19930;-69
2022/01/01 15:52:45;;;;;;;;;;;;;;;;;;5010206;28;19947;-67
2022/01/01 15:55:12;;;;;;;;;;;;;;;;;;5011608;28;19926;-67
2022/01/01 15:57:39;;;;;;;;;;;;;;;;;;5010355;28;19926;-66
2022/01/01 16:00:06;;;;;;;;;;;;;;;;;;5009124;28;19926;-66
2022/01/01 16:02:33;;;;;;;;;;;;;;;;;;5004812;28;19955;-67
2022/01/01 16:05:00;;;;;;;;;;;;;;;;;;5012205;28;20289;-67
2022/01/01 16:07:27;;;;;;;;;;;;;;;;;;5007948;28;20376;-67
2022/01/01 16:09:54;;;;;;;;;;;;;;;;;;5010794;28;20335;-68
2022/01/01 16:12:21;;;;;;;;;;;;;;;;;;5008329;28;19926;-67
2022/01/01 16:14:48;;;;;;;;;;;;;;;;;;5009758;28;19925;-67
2022/01/01 16:17:15;;;;;;;;;;;;;;;;;;5008637;28;19925;-68
2022/01/01 16:19:42;;;;;;;;;;;;;;;;;;5009552;28;20455;-68
2022/01/01 16:22:09;;;;;;;;;;;;;;;;;;5009476;28;19932;-68
2022/01/01 16:24:36;;;;;;;;;;;;;;;;;;5012258;28;19925;-68
2022/01/01 16:27:03;;;;;;;;;;;;;;;;;;5002634;28;19947;-69
2022/01/01 16:29:30;;;;;;;;;;;;;;;;;;5005573;28;19929;-69
2022/01/01 16:31:57;;;;;;;;;;;;;;;;;;5006728;28;19926;-66
2022/01/01 16:34:24;;;;;;;;;;;;;;;;;;5004975;28;19930;-67
2022/01/01 16:36:51;;;;;;;;;;;;;;;;;;5009765;28;20024;-67
2022/01/01 16:39:18;;;;;;;;;;;;;;;;;;5011601;28;19925;-68
2022/01/01 16:41:44;;;;;;;;;;;;;;;;;;5000782;28;19926;-68
2022/01/01 16:44:11;;;;;;;;;;;;;;;;;;5008887;28;19925;-68
2022/01/01 16:46:38;;;;;;;;;;;;;;;;;;5003515;28;19941;-68
2022/01/01 16:49:05;;;;;;;;;;;;;;;;;;5005735;28;20021;-68
2022/01/01 16:51:32;;;;;;;;;;;;;;;;;;5001046;28;19930;-68
2022/01/01 16:53:59;;;;;;;;;;;;;;;;;;5003393;28;19933;-68